createdAt,value
2019-04-05T00:02:09.140Z,100.00
2019-04-05T00:04:38.301Z,100.00
2019-04-05T00:07:07.483Z,100.00
2019-04-05T00:09:36.643Z,100.00
2019-04-05T00:12:05.808Z,100.00
2019-04-05T00:14:35.160Z,100.00
2019-04-05T00:17:04.319Z,100.00
2019-04-05T00:19:33.450Z,100.00
2019-04-05T00:22:03.116Z,100.00
2019-04-05T00:24:32.335Z,100.00
2019-04-05T00:27:01.504Z,100.00
2019-04-05T00:29:30.657Z,100.00
2019-04-05T00:32:00.234Z,100.00
2019-04-05T00:34:29.504Z,100.00
2019-04-05T00:36:58.634Z,100.00
2019-04-05T00:39:27.798Z,100.00
2019-04-05T00:41:57.188Z,100.00
2019-04-05T00:44:26.365Z,100.00
2019-04-05T00:46:55.513Z,100.00
2019-04-05T00:49:25.069Z,100.00
2019-04-05T00:51:54.528Z,100.00
2019-04-05T00:54:24.356Z,100.00
2019-04-05T00:56:53.532Z,100.00
2019-04-05T00:59:22.665Z,100.00
2019-04-05T01:01:51.982Z,100.00
2019-04-05T01:04:21.168Z,100.00
2019-04-05T01:06:50.455Z,100.00
2019-04-05T01:09:19.771Z,100.00
2019-04-05T01:11:49.540Z,100.00
2019-04-05T01:14:19.175Z,100.00
2019-04-05T01:16:48.405Z,100.00
2019-04-05T01:19:19.001Z,100.00
2019-04-05T01:21:49.947Z,100.00
2019-04-05T01:24:20.761Z,100.00
2019-04-05T01:26:50.997Z,100.00
2019-04-05T01:29:20.836Z,100.00
2019-04-05T01:31:50.049Z,100.00
2019-04-05T01:34:19.215Z,100.00
2019-04-05T01:36:48.391Z,100.00
2019-04-05T01:39:17.619Z,100.00
2019-04-05T01:41:47.123Z,100.00
2019-04-05T01:44:16.358Z,100.00
2019-04-05T01:46:45.733Z,100.00
2019-04-05T01:49:14.984Z,100.00
2019-04-05T01:51:44.584Z,100.00
2019-04-05T01:54:13.974Z,100.00
2019-04-05T01:56:43.662Z,100.00
2019-04-05T01:59:12.946Z,100.00
2019-04-05T02:01:42.163Z,100.00
2019-04-05T02:04:11.279Z,100.00
2019-04-05T02:06:40.656Z,100.00
2019-04-05T02:09:12.133Z,100.00
2019-04-05T02:11:41.572Z,100.00
2019-04-05T02:14:10.932Z,100.00
2019-04-05T02:16:40.260Z,100.00
2019-04-05T02:19:12.647Z,100.00
2019-04-05T02:21:41.887Z,100.00
2019-04-05T02:24:11.010Z,100.00
2019-04-05T02:26:40.153Z,100.00
2019-04-05T02:29:09.463Z,100.00
2019-04-05T02:31:38.628Z,100.00
2019-04-05T02:34:07.765Z,100.00
2019-04-05T02:36:37.143Z,100.00
2019-04-05T02:39:08.561Z,100.00
2019-04-05T02:41:38.656Z,100.00
2019-04-05T02:44:10.700Z,100.00
2019-04-05T02:46:41.693Z,100.00
2019-04-05T02:49:12.766Z,100.00
2019-04-05T02:51:43.834Z,100.00
2019-04-05T02:54:13.731Z,100.00
2019-04-05T02:56:43.751Z,100.00
2019-04-05T02:59:14.349Z,100.00
2019-04-05T03:01:44.290Z,100.00
2019-04-05T03:04:14.145Z,100.00
2019-04-05T03:06:43.862Z,100.00
2019-04-05T03:09:13.189Z,100.00
2019-04-05T03:11:43.627Z,100.00
2019-04-05T03:14:14.264Z,100.00
2019-04-05T03:16:46.382Z,100.00
2019-04-05T03:19:24.932Z,100.00
2019-04-05T03:21:58.749Z,100.00
2019-04-05T03:24:31.767Z,100.00
2019-04-05T03:27:12.107Z,100.00
2019-04-05T03:29:42.909Z,100.00
2019-04-05T03:32:12.050Z,100.00
2019-04-05T03:34:42.501Z,100.00
2019-04-05T03:37:11.768Z,100.00
2019-04-05T03:39:41.351Z,100.00
2019-04-05T03:42:11.073Z,100.00
2019-04-05T03:44:40.418Z,100.00
2019-04-05T03:47:09.762Z,100.00
2019-04-05T03:49:38.912Z,100.00
2019-04-05T03:52:08.073Z,100.00
2019-04-05T03:54:37.472Z,100.00
2019-04-05T03:57:06.701Z,100.00
2019-04-05T03:59:36.145Z,100.00
2019-04-05T04:02:05.715Z,100.00
2019-04-05T04:04:35.098Z,100.00
2019-04-05T04:07:04.681Z,100.00
2019-04-05T04:09:34.184Z,100.00
2019-04-05T04:12:03.703Z,100.00
2019-04-05T04:14:32.833Z,100.00
2019-04-05T04:17:12.063Z,100.00
2019-04-05T04:19:34.181Z,100.00
2019-04-05T04:22:23.605Z,100.00
2019-04-05T04:24:53.033Z,100.00
2019-04-05T04:27:22.945Z,100.00
2019-04-05T04:29:53.173Z,97.84
2019-04-05T04:32:22.759Z,97.06
2019-04-05T04:34:53.513Z,98.03
2019-04-05T04:37:23.334Z,97.37
2019-04-05T04:39:52.826Z,98.72
2019-04-05T04:42:22.321Z,98.21
2019-04-05T04:44:51.509Z,98.78
2019-04-05T04:47:27.003Z,100.00
2019-04-05T04:49:53.565Z,100.00
2019-04-05T04:52:22.950Z,100.00
2019-04-05T04:54:52.482Z,100.00
2019-04-05T04:57:21.658Z,100.00
2019-04-05T04:59:51.036Z,100.00
2019-04-05T05:02:20.401Z,100.00
2019-04-05T05:04:49.680Z,100.00
2019-04-05T05:07:19.321Z,100.00
2019-04-05T05:09:48.774Z,100.00
2019-04-05T05:12:19.592Z,100.00
2019-04-05T05:14:49.009Z,100.00
2019-04-05T05:17:18.539Z,100.00
2019-04-05T05:19:48.658Z,100.00
2019-04-05T05:22:19.090Z,100.00
2019-04-05T05:24:48.342Z,100.00
2019-04-05T05:27:17.781Z,100.00
2019-04-05T05:29:47.295Z,100.00
2019-04-05T05:32:16.777Z,100.00
2019-04-05T05:34:46.264Z,100.00
2019-04-05T05:37:15.649Z,100.00
2019-04-05T05:39:44.951Z,100.00
2019-04-05T05:42:14.099Z,100.00
2019-04-05T05:44:43.450Z,100.00
2019-04-05T05:47:13.042Z,100.00
2019-04-05T05:49:42.391Z,99.70
2019-04-05T05:52:11.665Z,99.33
2019-04-05T05:54:40.863Z,98.93
2019-04-05T05:57:10.022Z,98.55
2019-04-05T05:59:39.218Z,98.34
2019-04-05T06:02:08.386Z,98.68
2019-04-05T06:04:37.841Z,98.78
2019-04-05T06:07:06.974Z,98.38
2019-04-05T06:09:36.193Z,98.73
2019-04-05T06:12:05.679Z,99.24
2019-04-05T06:14:35.547Z,98.92
2019-04-05T06:17:04.745Z,98.60
2019-04-05T06:19:34.008Z,98.22
2019-04-05T06:22:03.187Z,98.16
2019-04-05T06:24:32.485Z,97.71
2019-04-05T06:27:01.614Z,97.79
2019-04-05T06:29:30.829Z,97.64
2019-04-05T06:31:59.950Z,97.56
2019-04-05T06:34:29.448Z,97.11
2019-04-05T06:36:58.564Z,97.25
2019-04-05T06:39:27.880Z,97.37
2019-04-05T06:41:57.147Z,96.87
2019-04-05T06:44:27.921Z,97.47
2019-04-05T06:46:57.336Z,97.61
2019-04-05T06:49:26.543Z,97.57
2019-04-05T06:51:55.692Z,97.36
2019-04-05T06:54:24.959Z,96.78
2019-04-05T06:56:54.175Z,98.06
2019-04-05T06:59:23.346Z,98.27
2019-04-05T07:01:52.562Z,97.65
2019-04-05T07:04:21.861Z,98.07
2019-04-05T07:06:51.015Z,97.53
2019-04-05T07:09:20.174Z,96.45
2019-04-05T07:11:49.349Z,96.44
2019-04-05T07:14:18.633Z,95.99
2019-04-05T07:16:48.766Z,95.23
2019-04-05T07:19:17.932Z,96.15
2019-04-05T07:21:47.096Z,95.65
2019-04-05T07:24:16.433Z,94.81
2019-04-05T07:26:45.646Z,94.33
2019-04-05T07:29:14.791Z,93.32
2019-04-05T07:31:44.259Z,91.71
2019-04-05T07:34:13.582Z,90.53
2019-04-05T07:36:42.795Z,89.59
2019-04-05T07:39:11.926Z,90.13
2019-04-05T07:41:41.297Z,89.85
2019-04-05T07:44:10.472Z,90.26
2019-04-05T07:46:39.683Z,89.82
2019-04-05T07:49:09.015Z,90.52
2019-04-05T07:51:38.413Z,91.76
2019-04-05T07:54:07.595Z,90.57
2019-04-05T07:56:36.892Z,88.39
2019-04-05T07:59:06.182Z,87.58
2019-04-05T08:01:35.337Z,87.13
2019-04-05T08:04:04.640Z,86.32
2019-04-05T08:06:35.131Z,86.67
2019-04-05T08:09:10.486Z,85.26
2019-04-05T08:11:41.905Z,85.25
2019-04-05T08:14:12.309Z,84.85
2019-04-05T08:16:41.451Z,85.06
2019-04-05T08:19:10.790Z,85.26
2019-04-05T08:21:39.957Z,84.74
2019-04-05T08:24:09.772Z,85.26
2019-04-05T08:26:38.992Z,85.14
2019-04-05T08:29:08.577Z,83.86
2019-04-05T08:31:37.787Z,82.43
2019-04-05T08:34:07.122Z,82.73
2019-04-05T08:36:36.317Z,83.03
2019-04-05T08:39:07.976Z,83.16
2019-04-05T08:41:37.217Z,84.06
2019-04-05T08:44:06.784Z,82.45
2019-04-05T08:46:36.357Z,83.01
2019-04-05T08:49:10.845Z,83.03
2019-04-05T08:51:37.372Z,84.21
2019-04-05T08:54:06.616Z,83.27
2019-04-05T08:56:35.838Z,83.83
2019-04-05T08:59:05.194Z,84.35
2019-04-05T09:01:34.616Z,84.99
2019-04-05T09:04:04.223Z,85.39
2019-04-05T09:06:33.798Z,85.29
2019-04-05T09:09:05.790Z,85.61
2019-04-05T09:11:35.111Z,85.08
2019-04-05T09:14:04.275Z,83.31
2019-04-05T09:16:33.436Z,81.69
2019-04-05T09:19:02.680Z,79.78
2019-04-05T09:21:32.105Z,79.36
2019-04-05T09:24:01.512Z,80.81
2019-04-05T09:26:30.707Z,81.54
2019-04-05T09:28:59.865Z,80.36
2019-04-05T09:31:29.168Z,81.43
2019-04-05T09:33:58.304Z,79.99
2019-04-05T09:36:27.562Z,79.04
2019-04-05T09:38:56.905Z,78.25
2019-04-05T09:41:26.194Z,77.18
2019-04-05T09:43:55.435Z,75.93
2019-04-05T09:46:24.697Z,75.22
2019-04-05T09:48:53.897Z,72.29
2019-04-05T09:51:23.065Z,70.94
2019-04-05T09:53:52.218Z,70.42
2019-04-05T09:56:21.467Z,72.42
2019-04-05T09:58:50.696Z,71.07
2019-04-05T10:01:19.970Z,70.72
2019-04-05T10:03:49.127Z,71.34
2019-04-05T10:06:18.330Z,71.05
2019-04-05T10:08:47.481Z,71.12
2019-04-05T10:11:17.194Z,72.05
2019-04-05T10:13:46.501Z,69.53
2019-04-05T10:16:15.690Z,67.80
2019-04-05T10:18:44.884Z,67.34
2019-04-05T10:21:14.261Z,68.17
2019-04-05T10:23:43.722Z,69.02
2019-04-05T10:26:12.887Z,71.04
2019-04-05T10:28:42.122Z,71.22
2019-04-05T10:31:11.352Z,72.69
2019-04-05T10:33:40.561Z,72.53
2019-04-05T10:36:09.892Z,71.39
2019-04-05T10:38:39.085Z,70.60
2019-04-05T10:41:08.414Z,71.28
2019-04-05T10:43:37.584Z,72.27
2019-04-05T10:46:06.943Z,72.78
2019-04-05T10:48:36.089Z,73.30
2019-04-05T10:51:05.307Z,75.37
2019-04-05T10:53:34.516Z,75.69
2019-04-05T10:56:03.811Z,77.21
2019-04-05T10:58:33.047Z,75.99
2019-04-05T11:01:02.219Z,75.67
2019-04-05T11:03:31.541Z,77.19
2019-04-05T11:06:00.945Z,76.65
2019-04-05T11:08:30.265Z,74.85
2019-04-05T11:10:59.408Z,75.30
2019-04-05T11:13:28.789Z,75.18
2019-04-05T11:15:58.034Z,76.00
2019-04-05T11:18:27.275Z,77.03
2019-04-05T11:20:56.456Z,74.85
2019-04-05T11:23:25.850Z,75.28
2019-04-05T11:25:55.300Z,74.88
2019-04-05T11:28:24.469Z,74.24
2019-04-05T11:30:53.687Z,75.00
2019-04-05T11:33:23.413Z,74.91
2019-04-05T11:35:52.635Z,74.86
2019-04-05T11:38:24.274Z,75.53
2019-04-05T11:40:53.900Z,74.78
2019-04-05T11:43:26.887Z,75.41
2019-04-05T11:45:56.902Z,76.52
2019-04-05T11:48:26.331Z,77.46
2019-04-05T11:50:57.392Z,77.74
2019-04-05T11:53:26.581Z,76.65
2019-04-05T11:55:55.860Z,77.20
2019-04-05T11:58:25.303Z,76.54
2019-04-05T12:01:12.682Z,76.53
2019-04-05T12:03:47.106Z,77.40
2019-04-05T12:06:16.314Z,77.95
2019-04-05T12:08:45.583Z,78.63
2019-04-05T12:11:14.812Z,78.67
2019-04-05T12:13:44.040Z,78.40
2019-04-05T12:16:13.299Z,79.18
2019-04-05T12:18:42.600Z,78.01
2019-04-05T12:21:14.755Z,78.21
2019-04-05T12:23:44.229Z,77.66
2019-04-05T12:26:13.661Z,77.31
2019-04-05T12:28:42.807Z,77.00
2019-04-05T12:31:12.058Z,77.00
2019-04-05T12:33:41.501Z,76.64
2019-04-05T12:36:10.763Z,76.62
2019-04-05T12:38:39.950Z,77.39
2019-04-05T12:41:10.983Z,78.07
2019-04-05T12:43:43.804Z,77.62
2019-04-05T12:46:15.120Z,77.37
2019-04-05T12:48:45.445Z,76.89
2019-04-05T12:51:15.561Z,76.92
2019-04-05T12:53:44.240Z,75.75
2019-04-05T12:56:13.489Z,75.84
2019-04-05T12:58:42.814Z,75.52
2019-04-05T13:01:12.012Z,76.01
2019-04-05T13:03:41.219Z,77.53
2019-04-05T13:06:10.446Z,77.82
2019-04-05T13:08:40.348Z,77.41
2019-04-05T13:11:09.553Z,77.30
2019-04-05T13:13:39.008Z,77.59
2019-04-05T13:16:10.758Z,77.28
2019-04-05T13:18:39.187Z,77.13
2019-04-05T13:21:15.132Z,77.49
2019-04-05T13:23:39.409Z,77.80
2019-04-05T13:26:11.480Z,77.85
2019-04-05T13:28:39.541Z,78.89
2019-04-05T13:31:08.752Z,78.69
2019-04-05T13:33:37.932Z,78.29
2019-04-05T13:36:08.591Z,78.72
2019-04-05T13:38:37.838Z,78.71
2019-04-05T13:41:07.044Z,77.97
2019-04-05T13:43:36.396Z,78.43
2019-04-05T13:46:05.581Z,78.28
2019-04-05T13:48:34.820Z,79.05
2019-04-05T13:51:07.080Z,79.22
2019-04-05T13:53:35.163Z,79.20
2019-04-05T13:56:04.421Z,78.72
2019-04-05T13:58:33.739Z,79.73
2019-04-05T14:01:03.138Z,79.07
2019-04-05T14:03:32.372Z,78.54
2019-04-05T14:06:01.528Z,79.44
2019-04-05T14:08:30.806Z,79.28
2019-04-05T14:10:59.983Z,79.61
2019-04-05T14:13:29.207Z,79.73
2019-04-05T14:15:58.558Z,79.91
2019-04-05T14:18:27.898Z,80.64
2019-04-05T14:20:57.162Z,80.12
2019-04-05T14:23:26.355Z,80.04
2019-04-05T14:25:59.522Z,79.99
2019-04-05T14:28:26.944Z,78.94
2019-04-05T14:30:56.149Z,78.31
2019-04-05T14:33:25.531Z,77.07
2019-04-05T14:35:55.405Z,76.70
2019-04-05T14:38:24.666Z,76.02
2019-04-05T14:40:54.094Z,75.77
2019-04-05T14:43:23.483Z,76.56
2019-04-05T14:45:55.851Z,76.95
2019-04-05T14:48:27.339Z,76.79
2019-04-05T14:50:57.861Z,76.87
2019-04-05T14:53:27.082Z,76.57
2019-04-05T14:55:59.086Z,77.85
2019-04-05T14:58:28.076Z,78.18
2019-04-05T15:00:57.320Z,77.89
2019-04-05T15:03:26.739Z,77.92
2019-04-05T15:05:56.252Z,77.45
2019-04-05T15:08:25.791Z,77.68
2019-04-05T15:10:56.892Z,78.35
2019-04-05T15:13:26.636Z,78.81
2019-04-05T15:15:56.777Z,79.07
2019-04-05T15:18:29.114Z,78.95
2019-04-05T15:20:58.537Z,79.38
2019-04-05T15:23:28.036Z,79.22
2019-04-05T15:25:57.586Z,80.08
2019-04-05T15:28:26.758Z,79.81
2019-04-05T15:30:56.621Z,80.65
2019-04-05T15:33:27.874Z,81.21
2019-04-05T15:36:00.123Z,81.34
2019-04-05T15:38:31.334Z,82.04
2019-04-05T15:40:58.914Z,82.08
2019-04-05T15:43:28.276Z,81.83
2019-04-05T15:45:57.405Z,81.28
2019-04-05T15:48:26.632Z,81.24
2019-04-05T15:50:59.094Z,80.85
2019-04-05T15:53:26.806Z,81.01
2019-04-05T15:55:55.985Z,80.66
2019-04-05T15:58:25.328Z,80.90
2019-04-05T16:00:54.904Z,81.01
2019-04-05T16:03:24.149Z,80.25
2019-04-05T16:05:53.333Z,81.02
2019-04-05T16:08:22.824Z,81.21
2019-04-05T16:10:52.255Z,81.38
2019-04-05T16:13:21.472Z,81.64
2019-04-05T16:15:50.674Z,81.19
2019-04-05T16:18:20.033Z,81.25
2019-04-05T16:20:49.451Z,80.83
2019-04-05T16:23:18.617Z,80.13
2019-04-05T16:25:47.776Z,80.61
2019-04-05T16:28:17.015Z,80.90
2019-04-05T16:30:46.192Z,80.75
2019-04-05T16:33:15.438Z,81.17
2019-04-05T16:35:44.746Z,81.20
2019-04-05T16:38:13.929Z,81.29
2019-04-05T16:40:43.108Z,81.86
2019-04-05T16:43:12.284Z,81.99
2019-04-05T16:45:41.462Z,82.06
2019-04-05T16:48:10.636Z,82.19
2019-04-05T16:50:42.280Z,82.24
2019-04-05T16:53:10.965Z,81.97
2019-04-05T16:55:40.204Z,82.46
2019-04-05T16:58:09.701Z,83.81
2019-04-05T17:00:38.897Z,83.61
2019-04-05T17:03:08.062Z,83.63
2019-04-05T17:05:37.306Z,83.69
2019-04-05T17:08:06.461Z,83.69
2019-04-05T17:10:35.673Z,83.69
2019-04-05T17:13:05.005Z,84.01
2019-04-05T17:15:34.218Z,83.83
2019-04-05T17:18:03.424Z,83.97
2019-04-05T17:20:32.782Z,84.39
2019-04-05T17:23:02.305Z,84.49
2019-04-05T17:25:31.767Z,84.14
2019-04-05T17:28:01.134Z,84.64
2019-04-05T17:30:30.375Z,84.91
2019-04-05T17:32:59.568Z,85.69
2019-04-05T17:35:30.841Z,86.00
2019-04-05T17:38:00.006Z,86.31
2019-04-05T17:40:29.690Z,86.60
2019-04-05T17:42:58.897Z,87.16
2019-04-05T17:45:28.214Z,87.38
2019-04-05T17:47:57.850Z,87.77
2019-04-05T17:50:32.424Z,88.24
2019-04-05T17:53:11.999Z,88.24
2019-04-05T17:55:33.099Z,88.53
2019-04-05T17:58:05.381Z,88.50
2019-04-05T18:00:34.699Z,87.66
2019-04-05T18:03:04.352Z,87.88
2019-04-05T18:05:33.498Z,87.20
2019-04-05T18:08:03.131Z,87.31
2019-04-05T18:10:32.427Z,87.46
2019-04-05T18:13:01.825Z,87.75
2019-04-05T18:15:31.379Z,87.38
2019-04-05T18:18:00.618Z,87.33
2019-04-05T18:20:29.887Z,87.66
2019-04-05T18:22:59.163Z,87.73
2019-04-05T18:25:28.497Z,87.53
2019-04-05T18:27:58.362Z,87.86
2019-04-05T18:30:27.862Z,88.26
2019-04-05T18:32:57.138Z,88.18
2019-04-05T18:35:26.320Z,88.20
2019-04-05T18:37:55.534Z,88.83
2019-04-05T18:40:24.946Z,89.24
2019-04-05T18:42:54.170Z,88.61
2019-04-05T18:45:23.361Z,88.31
2019-04-05T18:47:52.785Z,88.61
2019-04-05T18:50:22.123Z,88.32
2019-04-05T18:52:51.639Z,88.77
2019-04-05T18:55:21.283Z,89.50
2019-04-05T18:57:50.516Z,90.29
2019-04-05T19:00:19.800Z,90.68
2019-04-05T19:02:49.072Z,91.45
2019-04-05T19:05:18.732Z,91.85
2019-04-05T19:07:48.017Z,91.89
2019-04-05T19:10:17.715Z,92.08
2019-04-05T19:12:47.383Z,92.14
2019-04-05T19:15:16.635Z,92.55
2019-04-05T19:17:45.923Z,92.73
2019-04-05T19:20:15.314Z,92.60
2019-04-05T19:22:44.529Z,92.68
2019-04-05T19:25:13.989Z,93.11
2019-04-05T19:27:43.131Z,93.13
2019-04-05T19:50:21.127Z,93.72
2019-04-05T19:52:50.501Z,93.80
2019-04-05T19:55:19.649Z,93.70
2019-04-05T19:57:48.999Z,93.50
2019-04-05T20:00:19.027Z,93.86
2019-04-05T20:02:48.289Z,94.04
2019-04-05T20:05:17.549Z,94.02
2019-04-05T20:07:46.752Z,94.33
2019-04-05T20:10:16.263Z,94.48
2019-04-05T20:12:45.500Z,94.48
2019-04-05T20:15:14.826Z,94.61
2019-04-05T20:17:44.024Z,95.40
2019-04-05T20:20:13.397Z,95.82
2019-04-05T20:22:42.581Z,96.73
2019-04-05T20:25:11.841Z,96.86
2019-04-05T20:27:41.157Z,97.21
2019-04-05T20:30:10.630Z,97.12
2019-04-05T20:32:39.949Z,97.31
2019-04-05T20:35:09.371Z,97.68
2019-04-05T20:37:40.135Z,97.81
2019-04-05T20:40:09.531Z,97.85
2019-04-05T20:42:38.702Z,97.75
2019-04-05T20:45:07.987Z,97.30
2019-04-05T20:47:37.353Z,96.84
2019-04-05T20:50:06.902Z,97.00
2019-04-05T20:52:36.128Z,97.57
2019-04-05T20:55:06.119Z,98.12
2019-04-05T20:57:35.318Z,98.24
2019-04-05T21:00:05.063Z,97.98
2019-04-05T21:02:34.254Z,98.11
2019-04-05T21:05:03.434Z,98.62
2019-04-05T21:07:32.813Z,98.71
2019-04-05T21:10:01.954Z,98.89
2019-04-05T21:12:31.111Z,99.11
2019-04-05T21:15:01.469Z,99.35
2019-04-05T21:17:30.615Z,99.40
2019-04-05T21:19:59.808Z,99.36
2019-04-05T21:22:29.356Z,99.09
2019-04-05T21:24:58.742Z,99.11
2019-04-05T21:27:27.940Z,99.35
2019-04-05T21:29:57.143Z,99.67
2019-04-05T21:32:27.938Z,100.00
2019-04-05T21:34:57.065Z,100.00
2019-04-05T21:37:26.400Z,100.00
2019-04-05T21:39:55.572Z,100.00
2019-04-05T21:42:24.721Z,100.00
2019-04-05T21:44:54.096Z,100.00
2019-04-05T21:47:23.383Z,100.00
2019-04-05T21:49:52.575Z,100.00
2019-04-05T21:52:21.753Z,100.00
2019-04-05T21:54:50.972Z,100.00
2019-04-05T21:57:20.146Z,100.00
2019-04-05T21:59:49.371Z,100.00
2019-04-05T22:02:18.655Z,100.00
2019-04-05T22:04:47.887Z,100.00
2019-04-05T22:07:17.590Z,100.00
2019-04-05T22:09:46.799Z,100.00
2019-04-05T22:12:15.995Z,100.00
2019-04-05T22:14:45.339Z,100.00
2019-04-05T22:17:14.526Z,100.00
2019-04-05T22:19:44.752Z,100.00
2019-04-05T22:22:14.238Z,100.00
2019-04-05T22:24:43.363Z,100.00
2019-04-05T22:27:12.534Z,100.00
2019-04-05T22:29:41.962Z,100.00
2019-04-05T22:32:11.671Z,100.00
2019-04-05T22:34:40.989Z,100.00
2019-04-05T22:37:10.250Z,100.00
2019-04-05T22:39:39.525Z,100.00
2019-04-05T22:42:08.785Z,100.00
2019-04-05T22:44:41.339Z,100.00
2019-04-05T22:47:08.928Z,100.00
2019-04-05T22:49:38.197Z,100.00
2019-04-05T22:52:07.362Z,100.00
2019-04-05T22:54:36.514Z,100.00
2019-04-05T22:57:05.741Z,100.00
2019-04-05T22:59:34.949Z,100.00
2019-04-05T23:02:04.179Z,100.00
2019-04-05T23:04:33.559Z,100.00
2019-04-05T23:07:02.696Z,100.00
2019-04-05T23:09:31.934Z,100.00
2019-04-05T23:12:01.241Z,100.00
2019-04-05T23:14:30.372Z,100.00
2019-04-05T23:16:59.504Z,100.00
2019-04-05T23:19:30.035Z,100.00
2019-04-05T23:22:00.916Z,100.00
2019-04-05T23:24:30.217Z,100.00
2019-04-05T23:26:59.547Z,100.00
2019-04-05T23:29:28.999Z,100.00
2019-04-05T23:31:58.694Z,100.00
2019-04-05T23:34:28.080Z,100.00
2019-04-05T23:36:57.234Z,100.00
2019-04-05T23:39:26.374Z,100.00
2019-04-05T23:41:55.821Z,100.00
2019-04-05T23:44:24.970Z,100.00
2019-04-05T23:46:54.120Z,100.00
2019-04-05T23:49:23.302Z,100.00
2019-04-05T23:51:52.495Z,100.00
2019-04-05T23:54:21.617Z,100.00
2019-04-05T23:56:50.765Z,100.00
2019-04-05T23:59:19.888Z,100.00
